Time;durP1;ratioP1;P1;durP2;ratioP2;P2;SDS_P1;SDS_P2;PMS_P1;PMS_P2;Temp;Humidity;BMP_temperature;BMP_pressure;BME280_temperature;BME280_humidity;BME280_pressure;Samples;Min_cycle;Max_cycle;Signal;HPM_P1;HPM_P2
2022/06/10 00:01:04;;;;;;;1999.90;999.90;;;13.40;99.90;;;;;;5112875;28;20193;-60
2022/06/10 00:03:32;;;;;;;1999.90;999.90;;;13.30;99.90;;;;;;5112852;28;20209;-60
2022/06/10 00:06:03;;;;;;;1999.90;999.90;;;13.30;99.90;;;;;;5112772;28;20202;-60
2022/06/10 00:08:33;;;;;;;1999.90;999.90;;;13.40;99.90;;;;;;5112903;28;20177;-60
2022/06/10 00:11:01;;;;;;;1999.90;999.90;;;13.40;99.90;;;;;;5112819;28;20197;-60
2022/06/10 00:13:32;;;;;;;1999.90;999.90;;;13.40;99.90;;;;;;5112400;28;20196;-60
2022/06/10 00:16:00;;;;;;;1999.90;999.90;;;13.30;99.90;;;;;;5112748;28;20219;-60
2022/06/10 00:18:29;;;;;;;1999.90;999.90;;;13.20;99.90;;;;;;5112694;28;20205;-60
2022/06/10 00:20:59;;;;;;;1999.90;999.90;;;13.10;99.90;;;;;;5112662;28;20234;-60
2022/06/10 00:23:26;;;;;;;1999.90;999.90;;;13.10;99.90;;;;;;5112877;28;20202;-60
2022/06/10 00:25:54;;;;;;;1999.90;999.90;;;13.10;99.90;;;;;;5112554;28;20299;-60
2022/06/10 00:28:21;;;;;;;1999.90;999.90;;;13.10;99.90;;;;;;5112646;28;20197;-60
2022/06/10 00:30:49;;;;;;;1999.90;999.90;;;13.10;99.90;;;;;;5112664;28;20594;-60
2022/06/10 00:33:17;;;;;;;1999.90;999.90;;;13.10;99.90;;;;;;5112610;28;20205;-60
2022/06/10 00:35:44;;;;;;;1999.90;999.90;;;13.10;99.90;;;;;;5112318;28;20204;-60
2022/06/10 00:38:13;;;;;;;1999.90;999.90;;;13.00;99.90;;;;;;5112438;28;20682;-60
2022/06/10 00:40:43;;;;;;;1999.90;999.90;;;13.00;99.90;;;;;;5112562;28;20201;-60
2022/06/10 00:43:14;;;;;;;1999.90;999.90;;;13.00;99.90;;;;;;5112046;28;20238;-60
2022/06/10 00:46:00;;;;;;;1999.90;999.90;;;13.10;99.90;;;;;;5112548;28;20243;-60
2022/06/10 00:48:32;;;;;;;1999.90;999.90;;;13.10;99.90;;;;;;5112612;28;20174;-60
2022/06/10 00:51:04;;;;;;;1999.90;999.90;;;13.00;99.90;;;;;;5112398;28;20204;-61
2022/06/10 00:53:35;;;;;;;1999.90;999.90;;;12.90;99.90;;;;;;5114699;28;20185;-60
2022/06/10 00:56:07;;;;;;;1999.90;999.90;;;13.00;99.90;;;;;;5116060;28;20182;-60
2022/06/10 00:58:40;;;;;;;1999.90;999.90;;;12.90;99.90;;;;;;5116067;28;20181;-60
2022/06/10 01:01:08;;;;;;;1999.90;999.90;;;12.90;99.90;;;;;;5116176;28;20186;-60
2022/06/10 01:03:35;;;;;;;1999.90;999.90;;;12.90;99.90;;;;;;5115715;28;20670;-60
2022/06/10 01:06:02;;;;;;;1999.90;999.90;;;12.90;99.90;;;;;;5117261;28;20239;-60
2022/06/10 01:08:29;;;;;;;1999.90;999.90;;;13.00;99.90;;;;;;5115967;28;20213;-60
2022/06/10 01:11:10;;;;;;;1999.90;999.90;;;12.90;99.90;;;;;;5115817;28;20204;-60
2022/06/10 01:13:50;;;;;;;1999.90;999.90;;;12.80;99.90;;;;;;5115787;28;20641;-60
2022/06/10 01:16:27;;;;;;;1999.90;999.90;;;12.60;99.90;;;;;;5115954;28;20184;-60
2022/06/10 01:19:05;;;;;;;1999.90;999.90;;;12.50;99.90;;;;;;5115791;28;20189;-60
2022/06/10 01:21:50;;;;;;;1999.90;999.90;;;12.50;99.90;;;;;;5115640;28;20641;-60
2022/06/10 01:24:58;;;;;;;1999.90;999.90;;;12.40;99.90;;;;;;5115697;28;20186;-60
2022/06/10 01:27:49;;;;;;;1999.90;999.90;;;12.40;99.90;;;;;;5115453;28;20196;-60
2022/06/10 01:30:38;;;;;;;1999.90;999.90;;;12.30;99.90;;;;;;5115550;28;20197;-60
2022/06/10 01:33:19;;;;;;;1999.90;999.90;;;12.40;99.90;;;;;;5115190;28;20250;-60
2022/06/10 01:35:53;;;;;;;1999.90;999.90;;;12.60;99.90;;;;;;5115412;28;20193;-60
2022/06/10 01:38:25;;;;;;;1999.90;999.90;;;12.60;99.90;;;;;;5115361;28;20553;-60
2022/06/10 01:41:04;;;;;;;1999.90;999.90;;;12.40;99.90;;;;;;5115278;28;20530;-60
2022/06/10 01:43:41;;;;;;;1999.90;999.90;;;12.50;99.90;;;;;;5114656;28;20766;-60
2022/06/10 01:46:14;;;;;;;1999.90;999.90;;;12.70;99.90;;;;;;5115161;28;20189;-60
2022/06/10 01:48:51;;;;;;;1999.90;999.90;;;12.40;99.90;;;;;;5114999;28;20181;-60
2022/06/10 01:51:24;;;;;;;1999.90;999.90;;;12.20;99.90;;;;;;5115029;28;20189;-60
2022/06/10 01:53:57;;;;;;;1999.90;999.90;;;12.20;99.90;;;;;;5115166;28;20174;-60
2022/06/10 01:56:30;;;;;;;1999.90;999.90;;;12.30;99.90;;;;;;5114734;28;20192;-60
2022/06/10 01:59:02;;;;;;;1999.90;999.90;;;12.20;99.90;;;;;;5114978;28;20292;-60
2022/06/10 02:01:33;;;;;;;1999.90;999.90;;;12.20;99.90;;;;;;5114724;28;20184;-60
2022/06/10 02:04:06;;;;;;;1999.90;999.90;;;12.10;99.90;;;;;;5114672;28;20599;-60
2022/06/10 02:06:37;;;;;;;1999.90;999.90;;;12.00;99.90;;;;;;5114690;28;20191;-60
2022/06/10 02:09:13;;;;;;;1999.90;999.90;;;12.10;99.90;;;;;;5114990;28;20231;-60
2022/06/10 02:11:44;;;;;;;1999.90;999.90;;;12.10;99.90;;;;;;5114647;28;20546;-60
2022/06/10 02:14:16;;;;;;;1999.90;999.90;;;12.20;99.90;;;;;;5114674;28;20180;-60
2022/06/10 02:16:45;;;;;;;1999.90;999.90;;;12.30;99.90;;;;;;5114716;28;20181;-59
2022/06/10 02:19:18;;;;;;;1999.90;999.90;;;12.20;99.90;;;;;;5114197;28;20572;-60
2022/06/10 02:21:50;;;;;;;1999.90;999.90;;;12.30;99.90;;;;;;5114441;28;20186;-60
2022/06/10 02:24:20;;;;;;;1999.90;999.90;;;12.30;99.90;;;;;;5114416;28;20192;-60
2022/06/10 02:26:48;;;;;;;1999.90;999.90;;;12.40;99.90;;;;;;5116150;28;20229;-60
2022/06/10 02:29:20;;;;;;;1999.90;999.90;;;12.50;99.90;;;;;;5113951;28;20661;-60
2022/06/10 02:31:52;;;;;;;1999.90;999.90;;;12.60;99.90;;;;;;5114326;28;20546;-60
2022/06/10 02:34:21;;;;;;;1999.90;999.90;;;12.70;99.90;;;;;;5113979;28;20184;-60
2022/06/10 02:36:54;;;;;;;1999.90;999.90;;;12.70;99.90;;;;;;5114348;28;20209;-60
2022/06/10 02:39:26;;;;;;;1999.90;999.90;;;12.80;99.90;;;;;;5114147;28;20235;-60
2022/06/10 02:42:04;;;;;;;1999.90;999.90;;;12.80;99.90;;;;;;5113802;28;20627;-60
2022/06/10 02:44:38;;;;;;;1999.90;999.90;;;12.80;99.90;;;;;;5113931;28;20192;-60
2022/06/10 02:47:19;;;;;;;1999.90;999.90;;;12.90;99.90;;;;;;5113900;28;20208;-60
2022/06/10 02:49:47;;;;;;;1999.90;999.90;;;13.00;99.90;;;;;;5114020;28;20192;-60
2022/06/10 02:52:17;;;;;;;1999.90;999.90;;;13.00;99.90;;;;;;5113419;28;20688;-60
2022/06/10 02:54:44;;;;;;;1999.90;999.90;;;13.00;99.90;;;;;;5113757;28;20194;-60
2022/06/10 02:57:14;;;;;;;1999.90;999.90;;;13.10;99.90;;;;;;5113702;28;20250;-60
2022/06/10 03:02:36;;;;;;;1999.90;999.90;;;13.10;99.90;;;;;;5113736;28;20182;-60
2022/06/10 03:05:15;;;;;;;1999.90;999.90;;;13.20;99.90;;;;;;5113782;28;20268;-60
2022/06/10 03:07:54;;;;;;;1999.90;999.90;;;13.10;99.90;;;;;;5113192;28;20203;-60
2022/06/10 03:10:28;;;;;;;1999.90;999.90;;;13.10;99.90;;;;;;5113801;28;20280;-60
2022/06/10 03:13:12;;;;;;;1999.90;999.90;;;13.10;99.90;;;;;;5113645;28;20174;-60
2022/06/10 03:15:54;;;;;;;1999.90;999.90;;;13.10;99.90;;;;;;5112613;28;20193;-60
2022/06/10 03:18:30;;;;;;;1999.90;999.90;;;13.10;99.90;;;;;;5113608;28;20190;-60
2022/06/10 03:21:05;;;;;;;1999.90;999.90;;;13.20;99.90;;;;;;5113403;28;20279;-60
2022/06/10 03:23:44;;;;;;;1999.90;999.90;;;13.20;99.90;;;;;;5113378;28;20196;-60
2022/06/10 03:26:19;;;;;;;1999.90;999.90;;;13.20;99.90;;;;;;5113376;28;20200;-60
2022/06/10 03:28:52;;;;;;;1999.90;999.90;;;13.30;99.90;;;;;;5113185;28;20254;-60
2022/06/10 03:31:31;;;;;;;1999.90;999.90;;;13.40;99.90;;;;;;5113262;28;20177;-60
2022/06/10 03:34:03;;;;;;;1999.90;999.90;;;13.40;99.90;;;;;;5113265;28;20181;-60
2022/06/10 03:36:33;;;;;;;1999.90;999.90;;;13.50;99.90;;;;;;5113076;28;20748;-60
2022/06/10 03:39:01;;;;;;;1999.90;999.90;;;13.50;99.90;;;;;;5112916;28;20267;-60
2022/06/10 03:41:31;;;;;;;1999.90;999.90;;;13.60;99.90;;;;;;5113668;28;20234;-60
2022/06/10 03:44:02;;;;;;;1999.90;999.90;;;13.60;99.90;;;;;;5113356;28;20234;-60
2022/06/10 03:46:32;;;;;;;1999.90;999.90;;;13.60;99.90;;;;;;5115248;28;20189;-60
2022/06/10 03:49:03;;;;;;;1999.90;999.90;;;13.60;99.90;;;;;;5114054;28;20254;-62
2022/06/10 03:51:32;;;;;;;1999.90;999.90;;;13.60;99.90;;;;;;5112957;28;20186;-60
2022/06/10 03:53:59;;;;;;;1999.90;999.90;;;13.60;99.90;;;;;;5113599;28;20292;-60
2022/06/10 03:56:26;;;;;;;1999.90;999.90;;;13.70;99.90;;;;;;5113193;28;20887;-61
2022/06/10 03:58:54;;;;;;;1999.90;999.90;;;13.80;99.90;;;;;;5113130;28;20587;-60
2022/06/10 04:01:21;;;;;;;1999.90;999.90;;;13.80;99.90;;;;;;5113161;28;20190;-60
2022/06/10 04:03:48;;;;;;;1999.90;999.90;;;13.80;99.90;;;;;;5112959;28;20227;-61
2022/06/10 04:06:16;;;;;;;1999.90;999.90;;;13.80;99.90;;;;;;5113561;28;20197;-63
2022/06/10 04:08:44;;;;;;;1999.90;999.90;;;13.80;99.90;;;;;;5113524;28;20205;-60
2022/06/10 04:11:11;;;;;;;1999.90;999.90;;;13.80;99.90;;;;;;5112803;28;20296;-63
2022/06/10 04:13:38;;;;;;;1999.90;999.90;;;13.90;99.90;;;;;;5112502;28;20246;-60
2022/06/10 04:16:06;;;;;;;1999.90;999.90;;;13.90;99.90;;;;;;5112556;28;20646;-60
2022/06/10 04:18:33;;;;;;;1999.90;999.90;;;13.90;99.90;;;;;;5112794;28;20193;-61
2022/06/10 04:21:00;;;;;;;1999.90;999.90;;;13.90;99.90;;;;;;5112747;28;20194;-60
2022/06/10 04:23:27;;;;;;;1999.90;999.90;;;14.00;99.90;;;;;;5112806;28;20205;-60
2022/06/10 04:25:55;;;;;;;1999.90;999.90;;;14.00;99.90;;;;;;5112645;28;20201;-61
2022/06/10 04:28:22;;;;;;;1999.90;999.90;;;14.10;99.90;;;;;;5115486;28;20229;-61
2022/06/10 04:30:51;;;;;;;1999.90;999.90;;;14.10;99.90;;;;;;5117398;28;20216;-60
2022/06/10 04:33:19;;;;;;;1999.90;999.90;;;14.10;99.90;;;;;;5117524;28;20213;-60
2022/06/10 04:35:48;;;;;;;1999.90;999.90;;;14.10;99.90;;;;;;5116690;28;20222;-60
2022/06/10 04:38:16;;;;;;;1999.90;999.90;;;14.20;99.90;;;;;;5116596;28;20239;-63
2022/06/10 04:40:44;;;;;;;1999.90;999.90;;;14.20;99.90;;;;;;5116458;28;20296;-60
2022/06/10 04:43:13;;;;;;;1999.90;999.90;;;14.30;99.90;;;;;;5116261;28;20244;-60
2022/06/10 04:45:44;;;;;;;1999.90;999.90;;;14.30;99.90;;;;;;5116086;28;20239;-60
2022/06/10 04:48:12;;;;;;;1999.90;999.90;;;14.40;99.90;;;;;;5116444;28;20296;-60
2022/06/10 04:50:40;;;;;;;1999.90;999.90;;;14.40;99.90;;;;;;5116355;28;20361;-60
2022/06/10 04:53:08;;;;;;;1999.90;999.90;;;14.40;99.90;;;;;;5117704;28;20194;-61
2022/06/10 04:55:35;;;;;;;1999.90;999.90;;;14.50;99.90;;;;;;5116890;28;20220;-61
2022/06/10 04:58:02;;;;;;;1999.90;999.90;;;14.50;99.90;;;;;;5116210;28;20200;-61
2022/06/10 05:00:32;;;;;;;1999.90;999.90;;;14.50;99.90;;;;;;5116052;28;20202;-61
2022/06/10 05:03:02;;;;;;;1999.90;999.90;;;14.60;99.90;;;;;;5115992;28;20209;-60
2022/06/10 05:05:29;;;;;;;1999.90;999.90;;;14.70;99.90;;;;;;5116136;28;20199;-61
2022/06/10 05:07:56;;;;;;;1999.90;999.90;;;14.70;99.90;;;;;;5115657;28;20214;-61
2022/06/10 05:10:23;;;;;;;1999.90;999.90;;;14.70;99.90;;;;;;5116015;28;20208;-60
2022/06/10 05:12:50;;;;;;;1999.90;999.90;;;14.80;99.90;;;;;;5115909;28;20194;-60
2022/06/10 05:15:20;;;;;;;1999.90;999.90;;;14.80;99.90;;;;;;5115851;28;20201;-61
2022/06/10 05:17:49;;;;;;;1999.90;999.90;;;14.90;99.90;;;;;;5115779;28;20294;-60
2022/06/10 05:20:19;;;;;;;1999.90;999.90;;;15.00;99.90;;;;;;5115848;28;20559;-60
2022/06/10 05:22:46;;;;;;;1999.90;999.90;;;15.00;99.90;;;;;;5115347;28;20198;-60
2022/06/10 05:25:13;;;;;;;1999.90;999.90;;;15.10;99.90;;;;;;5115501;28;20205;-61
2022/06/10 05:27:41;;;;;;;1999.90;999.90;;;15.20;99.90;;;;;;5115636;28;20197;-60
2022/06/10 05:30:10;;;;;;;1999.90;999.90;;;15.20;99.90;;;;;;5115639;28;20211;-60
2022/06/10 05:32:37;;;;;;;1999.90;999.90;;;15.30;99.90;;;;;;5115659;28;20206;-60
2022/06/10 05:35:07;;;;;;;1999.90;999.90;;;15.30;99.90;;;;;;5115390;28;20205;-60
2022/06/10 05:37:34;;;;;;;1999.90;999.90;;;15.50;99.90;;;;;;5115272;28;20185;-61
2022/06/10 05:40:01;;;;;;;1999.90;999.90;;;15.50;99.90;;;;;;5115065;28;20201;-64
2022/06/10 05:42:29;;;;;;;1999.90;999.90;;;15.50;99.90;;;;;;5114992;28;20299;-61
2022/06/10 05:44:56;;;;;;;1999.90;999.90;;;15.60;99.90;;;;;;5115377;28;20208;-61
2022/06/10 05:47:26;;;;;;;1999.90;999.90;;;15.60;99.90;;;;;;5115325;28;20193;-61
2022/06/10 05:49:56;;;;;;;1999.90;999.90;;;15.70;99.90;;;;;;5114732;28;20560;-61
2022/06/10 05:52:27;;;;;;;1999.90;999.90;;;15.80;99.90;;;;;;5115150;28;20209;-61
2022/06/10 05:54:56;;;;;;;1999.90;999.90;;;15.80;99.90;;;;;;5115184;28;20189;-61
2022/06/10 05:57:23;;;;;;;1999.90;999.90;;;15.80;99.90;;;;;;5115517;28;20316;-62
2022/06/10 05:59:52;;;;;;;1999.90;999.90;;;15.90;99.90;;;;;;5116279;28;20187;-65
2022/06/10 06:02:20;;;;;;;1999.90;999.90;;;16.00;99.90;;;;;;5115666;28;20288;-61
2022/06/10 06:04:48;;;;;;;1999.90;999.90;;;16.00;99.90;;;;;;5115013;28;20199;-60
2022/06/10 06:07:18;;;;;;;1999.90;999.90;;;16.10;99.90;;;;;;5114652;28;20721;-61
2022/06/10 06:09:46;;;;;;;1999.90;999.90;;;16.20;99.90;;;;;;5114737;28;20215;-60
2022/06/10 06:12:13;;;;;;;1999.90;999.90;;;16.30;99.90;;;;;;5115045;28;20205;-61
2022/06/10 06:14:40;;;;;;;1999.90;999.90;;;16.40;99.90;;;;;;5114651;28;20195;-61
2022/06/10 06:17:07;;;;;;;1999.90;999.90;;;16.50;99.90;;;;;;5115102;28;20208;-62
2022/06/10 06:19:35;;;;;;;1999.90;999.90;;;16.50;99.90;;;;;;5114662;28;20200;-60
2022/06/10 06:22:02;;;;;;;1999.90;999.90;;;16.50;99.90;;;;;;5114611;28;20213;-61
2022/06/10 06:24:29;;;;;;;1999.90;999.90;;;16.50;99.90;;;;;;5114419;28;20413;-61
2022/06/10 06:26:58;;;;;;;1999.90;999.90;;;16.50;99.90;;;;;;5114811;28;20187;-61
2022/06/10 06:29:25;;;;;;;1999.90;999.90;;;16.60;99.90;;;;;;5114448;28;20213;-62
2022/06/10 06:31:53;;;;;;;1999.90;999.90;;;16.60;99.90;;;;;;5113958;28;20209;-60
2022/06/10 06:34:21;;;;;;;1999.90;999.90;;;16.60;99.90;;;;;;5114302;28;20627;-60
2022/06/10 06:36:50;;;;;;;1999.90;999.90;;;16.60;99.90;;;;;;5114082;28;20209;-61
2022/06/10 06:39:19;;;;;;;1999.90;999.90;;;16.70;99.90;;;;;;5114171;28;20671;-61
2022/06/10 06:41:46;;;;;;;1999.90;999.90;;;16.60;99.90;;;;;;5114203;28;20208;-62
2022/06/10 06:44:15;;;;;;;1999.90;999.90;;;16.50;99.90;;;;;;5113774;28;20231;-60
2022/06/10 06:46:43;;;;;;;1999.90;999.90;;;16.50;99.90;;;;;;5114026;28;20200;-61
2022/06/10 06:49:16;;;;;;;1999.90;999.90;;;16.50;99.90;;;;;;5114391;28;20273;-61
2022/06/10 06:51:43;;;;;;;1999.90;999.90;;;16.70;99.90;;;;;;5113233;28;20598;-61
2022/06/10 06:54:11;;;;;;;1999.90;999.90;;;16.60;99.90;;;;;;5113584;28;20203;-61
2022/06/10 06:56:39;;;;;;;1999.90;999.90;;;16.70;99.90;;;;;;5113597;28;20733;-62
2022/06/10 06:59:07;;;;;;;1999.90;999.90;;;16.80;99.90;;;;;;5113816;28;20613;-61
2022/06/10 07:01:35;;;;;;;1999.90;999.90;;;16.90;99.90;;;;;;5113898;28;20196;-61
2022/06/10 07:04:03;;;;;;;1999.90;999.90;;;17.00;99.90;;;;;;5113777;28;20201;-60
2022/06/10 07:06:31;;;;;;;1999.90;999.90;;;17.10;99.90;;;;;;5113713;28;20196;-61
2022/06/10 07:08:58;;;;;;;1999.90;999.90;;;17.30;99.90;;;;;;5113612;28;20221;-61
2022/06/10 07:11:25;;;;;;;1999.90;999.90;;;17.30;99.90;;;;;;5113933;28;20547;-60
2022/06/10 07:13:52;;;;;;;1999.90;999.90;;;17.40;99.90;;;;;;5113651;28;20204;-61
2022/06/10 07:16:19;;;;;;;1999.90;999.90;;;17.10;99.90;;;;;;5113988;28;20275;-70
2022/06/10 07:18:47;;;;;;;1999.90;999.90;;;17.10;99.90;;;;;;5116748;28;20200;-61
2022/06/10 07:21:14;;;;;;;1999.90;999.90;;;17.20;99.90;;;;;;5113811;28;20197;-61
2022/06/10 07:23:41;;;;;;;1999.90;999.90;;;17.40;99.90;;;;;;5113231;28;20197;-61
2022/06/10 07:26:10;;;;;;;1999.90;999.90;;;17.60;99.90;;;;;;5113190;28;20243;-61
2022/06/10 07:28:37;;;;;;;1999.90;999.90;;;17.70;99.90;;;;;;5113325;28;20221;-61
2022/06/10 07:31:04;;;;;;;1999.90;999.90;;;17.80;99.90;;;;;;5113424;28;20576;-61
2022/06/10 07:33:34;;;;;;;1999.90;999.90;;;17.80;99.90;;;;;;5113204;28;20205;-60
2022/06/10 07:36:02;;;;;;;1999.90;999.90;;;18.10;99.90;;;;;;5112954;28;20662;-61
2022/06/10 07:38:29;;;;;;;1999.90;999.90;;;18.00;99.90;;;;;;5113127;28;20197;-62
2022/06/10 07:43:42;;;;;;;1999.90;999.90;;;17.80;99.90;;;;;;5113178;28;20225;-59
2022/06/10 07:46:10;;;;;;;1999.90;999.90;;;17.70;99.90;;;;;;5113124;28;20201;-60
2022/06/10 07:48:37;;;;;;;1999.90;999.90;;;17.70;99.90;;;;;;5112985;28;20562;-61
2022/06/10 07:51:06;;;;;;;1999.90;999.90;;;17.80;99.90;;;;;;5113091;28;20246;-61
2022/06/10 07:53:33;;;;;;;1999.90;999.90;;;17.80;99.90;;;;;;5112530;28;20360;-61
2022/06/10 07:56:00;;;;;;;1999.90;999.90;;;17.80;99.90;;;;;;5113135;28;20201;-61
2022/06/10 07:58:29;;;;;;;1999.90;999.90;;;17.90;99.90;;;;;;5113063;28;20258;-61
2022/06/10 08:00:57;;;;;;;1999.90;999.90;;;18.00;99.90;;;;;;5112946;28;20202;-60
2022/06/10 08:03:24;;;;;;;1999.90;999.90;;;18.20;99.90;;;;;;5117203;28;20207;-60
2022/06/10 08:05:51;;;;;;;1999.90;999.90;;;18.30;99.90;;;;;;5117224;28;20201;-61
2022/06/10 08:08:21;;;;;;;1999.90;999.90;;;18.40;99.90;;;;;;5117165;28;20197;-60
2022/06/10 08:10:48;;;;;;;1999.90;999.90;;;18.40;99.90;;;;;;5117114;28;20305;-60
2022/06/10 08:13:15;;;;;;;1999.90;999.90;;;18.20;99.90;;;;;;5117344;28;20201;-61
2022/06/10 08:15:44;;;;;;;1999.90;999.90;;;18.20;99.90;;;;;;5116964;28;20199;-61
2022/06/10 08:18:13;;;;;;;1999.90;999.90;;;18.20;99.90;;;;;;5116876;28;20197;-60
2022/06/10 08:23:29;;;;;;;1999.90;999.90;;;18.50;99.90;;;;;;5116616;28;20281;-61
2022/06/10 08:25:58;;;;;;;1999.90;999.90;;;18.60;99.90;;;;;;5116782;28;20279;-61
2022/06/10 08:28:26;;;;;;;1999.90;999.90;;;18.70;99.90;;;;;;5116660;28;20201;-61
2022/06/10 08:30:53;;;;;;;1999.90;999.90;;;18.80;99.90;;;;;;5116675;28;20197;-61
2022/06/10 08:33:20;;;;;;;1999.90;999.90;;;19.00;99.90;;;;;;5116475;28;20212;-61
2022/06/10 08:35:48;;;;;;;1999.90;999.90;;;19.00;99.90;;;;;;5116240;28;20194;-61
2022/06/10 08:38:17;;;;;;;1999.90;999.90;;;19.10;99.90;;;;;;5116390;28;20193;-61
2022/06/10 08:40:53;;;;;;;1999.90;999.90;;;19.20;99.90;;;;;;5116465;28;20216;-61
2022/06/10 08:43:46;;;;;;;1999.90;999.90;;;19.30;99.90;;;;;;5115744;28;20717;-61
2022/06/10 08:46:35;;;;;;;1999.90;999.90;;;19.40;99.90;;;;;;5116715;28;20240;-61
2022/06/10 08:49:35;;;;;;;1999.90;999.90;;;19.30;99.90;;;;;;5116445;28;20198;-61
2022/06/10 08:52:11;;;;;;;1999.90;999.90;;;19.30;99.90;;;;;;5115949;28;20622;-61
2022/06/10 08:54:43;;;;;;;1999.90;999.90;;;19.20;99.90;;;;;;5116126;28;20235;-61
2022/06/10 08:57:20;;;;;;;1999.90;999.90;;;19.30;99.90;;;;;;5116199;28;20197;-61
2022/06/10 08:59:49;;;;;;;1999.90;999.90;;;19.40;99.90;;;;;;5115989;28;20184;-61
2022/06/10 09:02:26;;;;;;;1999.90;999.90;;;19.60;99.90;;;;;;5115824;28;20673;-60
2022/06/10 09:04:57;;;;;;;1999.90;999.90;;;19.70;99.90;;;;;;5115600;28;20185;-61
2022/06/10 09:07:29;;;;;;;1999.90;999.90;;;19.90;99.90;;;;;;5115888;28;20190;-62
2022/06/10 09:09:58;;;;;;;1999.90;999.90;;;20.10;99.90;;;;;;5116042;28;20704;-64
2022/06/10 09:12:39;;;;;;;1999.90;999.90;;;20.20;99.90;;;;;;5117145;28;20562;-62
2022/06/10 09:15:08;;;;;;;1999.90;999.90;;;20.60;99.90;;;;;;5115210;28;20181;-62
2022/06/10 09:17:41;;;;;;;1999.90;999.90;;;20.80;99.90;;;;;;5115428;28;20524;-61
2022/06/10 09:20:14;;;;;;;1999.90;999.90;;;20.70;99.90;;;;;;5115797;28;20173;-61
2022/06/10 09:22:49;;;;;;;1999.90;999.90;;;20.70;99.90;;;;;;5115610;28;20193;-61
2022/06/10 09:25:22;;;;;;;1999.90;999.90;;;21.00;99.90;;;;;;5115507;28;20181;-61
2022/06/10 09:27:55;;;;;;;1999.90;999.90;;;20.90;99.90;;;;;;5115166;28;20553;-61
2022/06/10 09:30:27;;;;;;;1999.90;999.90;;;20.90;99.90;;;;;;5115501;28;20595;-61
2022/06/10 09:33:04;;;;;;;1999.90;999.90;;;20.90;99.90;;;;;;5115698;28;20196;-60
2022/06/10 09:35:39;;;;;;;1999.90;999.90;;;21.20;99.90;;;;;;5115455;28;20186;-61
2022/06/10 09:38:15;;;;;;;1999.90;999.90;;;21.20;99.90;;;;;;5115399;28;20186;-61
2022/06/10 09:40:54;;;;;;;1999.90;999.90;;;21.60;99.90;;;;;;5115361;28;20231;-61
2022/06/10 09:43:38;;;;;;;1999.90;999.90;;;22.10;99.90;;;;;;5115051;28;20225;-61
2022/06/10 09:46:34;;;;;;;1999.90;999.90;;;22.00;99.90;;;;;;5115147;28;20242;-63
2022/06/10 09:49:15;;;;;;;1999.90;999.90;;;23.00;99.90;;;;;;5114437;28;20202;-62
2022/06/10 09:51:51;;;;;;;1999.90;999.90;;;23.80;99.90;;;;;;5114358;28;20627;-63
2022/06/10 09:54:28;;;;;;;1999.90;999.90;;;23.90;99.90;;;;;;5114860;28;20189;-62
2022/06/10 09:57:21;;;;;;;1999.90;999.90;;;23.10;99.90;;;;;;5114726;28;20178;-63
2022/06/10 09:59:56;;;;;;;1999.90;999.90;;;23.50;99.90;;;;;;5114323;28;20193;-63
2022/06/10 10:02:35;;;;;;;1999.90;999.90;;;23.60;99.90;;;;;;5114560;28;20209;-63
2022/06/10 10:05:28;;;;;;;1999.90;999.90;;;24.00;99.90;;;;;;5114753;28;20196;-62
2022/06/10 10:08:03;;;;;;;1999.90;999.90;;;23.60;1.00;;;;;;5114377;28;20193;-62
2022/06/10 10:10:34;;;;;;;1999.90;999.90;;;23.80;99.90;;;;;;5114036;28;20777;-62
2022/06/10 10:13:23;;;;;;;1999.90;999.90;;;23.20;1.00;;;;;;5114414;28;20252;-62
2022/06/10 10:16:01;;;;;;;1999.90;999.90;;;22.80;99.90;;;;;;5114057;28;20631;-62
2022/06/10 10:18:43;;;;;;;1999.90;999.90;;;22.40;99.90;;;;;;5114379;28;20178;-62
2022/06/10 10:21:13;;;;;;;1999.90;999.90;;;23.10;99.90;;;;;;5114254;28;20190;-61
2022/06/10 10:23:42;;;;;;;1999.90;999.90;;;22.40;2.70;;;;;;5114228;28;20198;-61
2022/06/10 10:26:19;;;;;;;1999.90;999.90;;;22.20;1.00;;;;;;5114036;28;20198;-62
2022/06/10 10:28:48;;;;;;;1999.90;999.90;;;22.20;1.00;;;;;;5113781;28;20727;-62
2022/06/10 10:31:21;;;;;;;1999.90;999.90;;;22.40;99.90;;;;;;5113883;28;20209;-63
2022/06/10 10:33:49;;;;;;;1999.90;999.90;;;22.60;29.90;;;;;;5113973;28;20185;-63
2022/06/10 10:36:24;;;;;;;1999.90;999.90;;;22.90;99.90;;;;;;5114121;28;20201;-63
2022/06/10 10:38:53;;;;;;;1999.90;999.90;;;23.00;1.00;;;;;;5113606;28;20189;-63
2022/06/10 10:41:31;;;;;;;1999.90;999.90;;;22.60;1.00;;;;;;5113903;28;20217;-63
2022/06/10 10:44:02;;;;;;;1999.90;999.90;;;22.30;99.90;;;;;;5113476;28;20229;-63
2022/06/10 10:46:35;;;;;;;1999.90;999.90;;;22.80;1.00;;;;;;5113851;28;20910;-63
2022/06/10 10:49:05;;;;;;;1999.90;999.90;;;23.10;1.00;;;;;;5113682;28;20573;-62
2022/06/10 10:51:39;;;;;;;1999.90;999.90;;;23.40;1.00;;;;;;5113625;28;20186;-62
2022/06/10 10:54:16;;;;;;;1999.90;999.90;;;23.60;1.00;;;;;;5113536;28;20259;-62
2022/06/10 10:56:47;;;;;;;1999.90;999.90;;;23.30;1.00;;;;;;5113574;28;20542;-62
2022/06/10 10:59:40;;;;;;;1999.90;999.90;;;23.00;99.90;;;;;;5113543;28;20181;-61
2022/06/10 11:02:31;;;;;;;1999.90;999.90;;;23.10;1.00;;;;;;5113527;28;20188;-61
2022/06/10 11:05:18;;;;;;;1999.90;999.90;;;22.80;99.90;;;;;;5113508;28;20565;-61
2022/06/10 11:07:46;;;;;;;1999.90;999.90;;;23.00;1.00;;;;;;5113600;28;20181;-61
2022/06/10 11:10:19;;;;;;;1999.90;999.90;;;23.30;8.00;;;;;;5112955;28;20213;-62
2022/06/10 11:12:46;;;;;;;1999.90;999.90;;;23.50;1.00;;;;;;5113505;28;20177;-62
2022/06/10 11:15:23;;;;;;;1999.90;999.90;;;23.40;99.90;;;;;;5112950;28;20629;-62
2022/06/10 11:17:51;;;;;;;1999.90;999.90;;;23.10;99.90;;;;;;5113207;28;20242;-61
2022/06/10 11:20:25;;;;;;;1999.90;999.90;;;23.40;57.80;;;;;;5112814;28;20202;-62
2022/06/10 11:23:11;;;;;;;1999.90;999.90;;;23.80;1.00;;;;;;5113051;28;20182;-62
2022/06/10 11:25:38;;;;;;;1999.90;999.90;;;23.40;92.30;;;;;;5112805;28;20273;-61
2022/06/10 11:28:19;;;;;;;1999.90;999.90;;;23.50;99.90;;;;;;5113026;28;20202;-61
2022/06/10 11:30:49;;;;;;;1999.90;999.90;;;23.30;99.90;;;;;;5113067;28;20197;-60
2022/06/10 11:33:32;;;;;;;1999.90;999.90;;;23.60;1.00;;;;;;5112863;28;20205;-61
2022/06/10 11:36:03;;;;;;;1999.90;999.90;;;23.70;1.00;;;;;;5112511;28;20193;-63
2022/06/10 11:38:32;;;;;;;1999.90;999.90;;;23.90;99.90;;;;;;5112596;28;20177;-62
2022/06/10 11:41:13;;;;;;;1999.90;999.90;;;23.60;99.90;;;;;;5112454;28;20194;-62
2022/06/10 11:43:46;;;;;;;1999.90;999.90;;;23.30;1.00;;;;;;5111950;28;20270;-62
2022/06/10 11:46:17;;;;;;;1999.90;999.90;;;23.80;2.90;;;;;;5112824;28;20194;-62
2022/06/10 11:48:51;;;;;;;1999.90;999.90;;;23.60;99.90;;;;;;5112761;28;20181;-62
2022/06/10 11:51:23;;;;;;;1999.90;999.90;;;24.10;1.00;;;;;;5112733;28;20205;-61
2022/06/10 11:53:58;;;;;;;1999.90;999.90;;;23.60;1.00;;;;;;5111266;28;20577;-62
2022/06/10 11:59:44;;;;;;;1999.90;999.90;;;24.50;99.90;;;;;;5112103;28;20185;-62
2022/06/10 12:02:18;;;;;;;1999.90;999.90;;;24.20;1.00;;;;;;5112360;28;20182;-61
2022/06/10 12:05:03;;;;;;;1999.90;999.90;;;24.20;99.90;;;;;;5112668;28;20509;-61
2022/06/10 12:07:35;;;;;;;1999.90;999.90;;;24.50;1.00;;;;;;5111169;28;20184;-61
2022/06/10 12:10:05;;;;;;;1999.90;999.90;;;25.00;1.00;;;;;;5111778;28;20193;-62
2022/06/10 12:12:39;;;;;;;1999.90;999.90;;;24.90;33.50;;;;;;5112500;28;20181;-62
2022/06/10 12:15:20;;;;;;;1999.90;999.90;;;25.00;99.90;;;;;;5112176;28;20173;-62
2022/06/10 12:17:49;;;;;;;1999.90;999.90;;;24.90;1.00;;;;;;5112396;28;20182;-62
2022/06/10 12:20:27;;;;;;;1999.90;999.90;;;24.70;99.90;;;;;;5112430;28;20243;-62
2022/06/10 12:22:54;;;;;;;1999.90;999.90;;;25.10;1.00;;;;;;5112406;28;20281;-63
2022/06/10 12:25:28;;;;;;;1999.90;999.90;;;25.40;99.90;;;;;;5112250;28;20209;-63
2022/06/10 12:27:59;;;;;;;1999.90;999.90;;;24.70;99.90;;;;;;5112487;28;20185;-63
2022/06/10 12:30:33;;;;;;;1999.90;999.90;;;24.40;1.00;;;;;;5112275;28;20197;-62
2022/06/10 12:33:05;;;;;;;1999.90;999.90;;;24.20;1.00;;;;;;5112665;28;20186;-62
2022/06/10 12:35:36;;;;;;;1999.90;999.90;;;24.00;1.00;;;;;;5112338;28;20189;-63